Chanson — ZDGDU2 — position and weather

sailwx.info

Track history (hours):
 
Tides and Currents Weather Stations Pressure Air Temp Water Temp Dewpoint Dewpoint Depression Visibility Wind Speed Wind Dir Waves Ship Positions

Chanson

Last reported at 2017-Dec-24 20:14 UTC. Time now 2018-Jan-22 08:30 UTC.
Position N 26°02' W 079°54'.
Warning: this ship's position is 28 days out of date.

Length 30 m.

MMSI: 319062100.

Date/timePositionNaut miles runAvg speedWind from/ knotsBaromVisibWave heightAir tempDewpointWater temp
2017-Dec-24 20:14N 26°02' W 079°54'1 6.0
2017-Dec-24 20:00N 26°03' W 079°55'3 6.0
2017-Dec-24 19:30N 26°04' W 079°59'3 4.9
2017-Dec-24 18:53N 26°04' W 080°02'2 4.4
2017-Dec-24 18:30N 26°05' W 080°04'3 6.4
2017-Dec-24 18:00N 26°06' W 080°07'1 1.7
2017-Dec-24 17:18N 26°07' W 080°06'0 0.0
2017-Dec-24 17:00N 26°07' W 080°06'0 0.0
2017-Dec-24 16:18N 26°07' W 080°06'0 0.0
2017-Dec-24 16:00N 26°07' W 080°06'0 0.0
2017-Dec-24 15:18N 26°07' W 080°06'0 0.0
2017-Dec-24 14:36N 26°07' W 080°06'0 0.0
2017-Dec-24 14:18N 26°07' W 080°06'0 0.0
2017-Dec-24 13:54N 26°07' W 080°06'0 0.0
2017-Dec-24 13:18N 26°07' W 080°06'0 0.0
2017-Dec-24 12:51N 26°07' W 080°06'0 0.0
2017-Dec-24 12:24N 26°07' W 080°06'0 0.0
2017-Dec-24 11:57N 26°07' W 080°06'0 0.0
2017-Dec-24 11:24N 26°07' W 080°06'0 0.0
2017-Dec-24 10:57N 26°07' W 080°06'0 0.0
2017-Dec-24 10:24N 26°07' W 080°06'0 0.0
2017-Dec-24 09:54N 26°07' W 080°06'0 0.0
2017-Dec-24 09:24N 26°07' W 080°06'0 0.0
2017-Dec-24 08:30N 26°07' W 080°06'0 0.0
2017-Dec-24 08:00N 26°07' W 080°06'0 0.0
2017-Dec-24 07:00N 26°07' W 080°06'0 0.0
2017-Dec-24 06:30N 26°07' W 080°06'0 0.0
2017-Dec-24 05:12N 26°07' W 080°06'0 0.0
2017-Dec-24 04:18N 26°07' W 080°06'0 0.0
2017-Dec-24 04:00N 26°07' W 080°06'0 0.0
2017-Dec-24 03:18N 26°07' W 080°06'0 0.0
2017-Dec-24 03:00N 26°07' W 080°06'0 0.0
2017-Dec-24 02:30N 26°07' W 080°06'0 0.0
2017-Dec-24 01:48N 26°07' W 080°06'0 0.0
2017-Dec-24 01:18N 26°07' W 080°06'0 0.0
2017-Dec-24 00:48N 26°07' W 080°06'0 0.0
2017-Dec-24 00:18N 26°07' W 080°06'0 0.0
2017-Dec-23 23:54N 26°07' W 080°06'0 0.0
2017-Dec-23 22:36N 26°07' W 080°06'0 0.0
2017-Dec-23 22:24N 26°07' W 080°06'0 0.0
2017-Dec-23 21:54N 26°07' W 080°06'0 0.0
2017-Dec-23 21:24N 26°07' W 080°06'0 0.0
2017-Dec-23 20:42N 26°07' W 080°06'0 0.0
2017-Dec-23 20:24N 26°07' W 080°06'0 0.0
2017-Dec-23 19:54N 26°07' W 080°06'0 0.0
2017-Dec-23 19:24N 26°07' W 080°06'0 0.0
2017-Dec-23 18:54N 26°07' W 080°06'0 0.0
2017-Dec-23 18:30N 26°07' W 080°06'0 0.0
2017-Dec-23 18:00N 26°07' W 080°06'0 0.0
2017-Dec-23 17:12N 26°07' W 080°06'0 0.0
2017-Dec-23 17:00N 26°07' W 080°06'0 0.0
2017-Dec-23 16:30N 26°07' W 080°06'0 0.0
2017-Dec-23 16:00N 26°07' W 080°06'0 0.0
2017-Dec-23 15:30N 26°07' W 080°06'0 0.1
2017-Dec-23 14:46N 26°07' W 080°06'0 0.5
2017-Dec-23 14:03N 26°07' W 080°07'0 0.0
2017-Dec-23 13:36N 26°07' W 080°07'0 0.0
2017-Dec-23 13:30N 26°07' W 080°07'0 0.5
2017-Dec-23 12:58N 26°07' W 080°07'0 0.1
2017-Dec-23 12:28N 26°07' W 080°06'0 0.0
2017-Dec-23 10:40N 26°07' W 080°06'0 0.0
2017-Dec-23 10:28N 26°07' W 080°06'0 0.0
2017-Dec-23 09:58N 26°07' W 080°06'0 0.0
2017-Dec-23 09:16N 26°07' W 080°06'0 0.0
2017-Dec-23 08:58N 26°07' W 080°06'611.6
2017-Dec-23 08:28N 26°13' W 080°06'6 8.3
2017-Dec-23 07:46N 26°07' W 080°06'0 0.0
2017-Dec-23 07:28N 26°07' W 080°06'0 0.0
2017-Dec-23 06:46N 26°07' W 080°06'0 0.0
2017-Dec-23 06:28N 26°07' W 080°06'0 0.0
2017-Dec-23 05:46N 26°07' W 080°06'0 0.0
2017-Dec-23 05:16N 26°07' W 080°06'0 0.0
2017-Dec-23 04:34N 26°07' W 080°06'0 0.0
2017-Dec-23 04:22N 26°07' W 080°06'0 0.0
2017-Dec-23 03:52N 26°07' W 080°06'0 0.0
2017-Dec-23 02:52N 26°07' W 080°06'0 0.0
2017-Dec-23 02:22N 26°07' W 080°06'0 0.0
2017-Dec-23 01:52N 26°07' W 080°06'0 0.0
2017-Dec-23 01:22N 26°07' W 080°06'0 0.0
2017-Dec-23 00:52N 26°07' W 080°06'0 0.0
2017-Dec-23 00:22N 26°07' W 080°06'0 0.0
2017-Dec-22 23:52N 26°07' W 080°06'0 0.0
2017-Dec-22 23:22N 26°07' W 080°06'0 0.0
2017-Dec-22 22:28N 26°07' W 080°06'0 0.0
2017-Dec-22 16:58N 26°07' W 080°06'0 0.0
2017-Dec-22 16:28N 26°07' W 080°06'0 0.0
2017-Dec-22 15:46N 26°07' W 080°06'0 0.0
2017-Dec-22 15:16N 26°07' W 080°06'0 0.0
2017-Dec-22 14:39N 26°07' W 080°06'0 0.0
2017-Dec-22 14:21N 26°07' W 080°06'0 0.0
2017-Dec-22 13:51N 26°07' W 080°06'0 0.0
2017-Dec-22 13:21N 26°07' W 080°06'0 0.0
2017-Dec-22 12:51N 26°07' W 080°06'0 0.0
2017-Dec-22 12:27N 26°07' W 080°06'0 0.0
2017-Dec-22 11:57N 26°07' W 080°06'0 0.0
2017-Dec-22 11:09N 26°07' W 080°06'0 0.0
2017-Dec-22 10:39N 26°07' W 080°06'0 0.0
2017-Dec-22 10:09N 26°07' W 080°06'0 0.0
2017-Dec-22 09:39N 26°07' W 080°06'0 0.0
2017-Dec-22 09:09N 26°07' W 080°06'0 0.0
2017-Dec-22 08:57N 26°07' W 080°06'0 0.0
2017-Dec-22 08:27N 26°07' W 080°06'0 0.0
2017-Dec-22 07:57N 26°07' W 080°06'0 0.0
2017-Dec-22 07:27N 26°07' W 080°06'0 0.0
2017-Dec-22 06:27N 26°07' W 080°06'0 0.0
2017-Dec-22 05:57N 26°07' W 080°06'0 0.0
2017-Dec-22 05:03N 26°07' W 080°06'0 0.0
2017-Dec-22 04:45N 26°07' W 080°06'0 0.0
2017-Dec-22 04:30N 26°07' W 080°06'0 0.0
2017-Dec-22 03:51N 26°07' W 080°06'0 0.0
2017-Dec-22 03:21N 26°07' W 080°06'0 0.0
2017-Dec-22 02:51N 26°07' W 080°06'0 0.0
2017-Dec-22 01:21N 26°07' W 080°06'0 0.0
2017-Dec-22 00:51N 26°07' W 080°06'0 0.0
2017-Dec-21 23:21N 26°07' W 080°06'0 0.0
2017-Dec-21 22:51N 26°07' W 080°06'0 0.0
2017-Dec-21 22:21N 26°07' W 080°06'0 0.0
2017-Dec-21 21:27N 26°07' W 080°06'0 0.0
2017-Dec-21 20:57N 26°07' W 080°06'0 0.0
2017-Dec-21 20:27N 26°07' W 080°06'0 0.0
2017-Dec-21 19:57N 26°07' W 080°06'0 0.0
2017-Dec-21 19:27N 26°07' W 080°06'0 0.0
2017-Dec-21 19:00N 26°07' W 080°06'0 0.0
2017-Dec-21 18:27N 26°07' W 080°06'0 0.0
2017-Dec-21 17:57N 26°07' W 080°06'0 0.0
2017-Dec-21 17:27N 26°07' W 080°06'0 0.0
2017-Dec-21 16:33N 26°07' W 080°06'0 0.0
2017-Dec-21 16:15N 26°07' W 080°06'0 0.0
2017-Dec-21 15:45N 26°07' W 080°06'0 0.0
2017-Dec-21 15:15N 26°07' W 080°06'0 0.0
2017-Dec-21 14:45N 26°07' W 080°06'0 0.0
2017-Dec-21 14:15N 26°07' W 080°06'0 0.0
2017-Dec-21 13:45N 26°07' W 080°06'0 0.0
2017-Dec-21 12:51N 26°07' W 080°06'0 0.0
2017-Dec-21 12:21N 26°07' W 080°06'0 0.0
2017-Dec-21 11:33N 26°07' W 080°06'0 0.0
2017-Dec-21 11:21N 26°07' W 080°06'0 0.0
2017-Dec-21 10:51N 26°07' W 080°06'0 0.0
2017-Dec-21 10:21N 26°07' W 080°06'0 0.0
2017-Dec-21 09:21N 26°07' W 080°06'0 0.0
2017-Dec-21 08:27N 26°07' W 080°06'0 0.0
2017-Dec-21 07:51N 26°07' W 080°06'0 0.0
2017-Dec-21 07:27N 26°07' W 080°06'0 0.0
2017-Dec-21 06:27N 26°07' W 080°06'0 0.0
2017-Dec-21 05:57N 26°07' W 080°06'0 0.0
2017-Dec-21 05:27N 26°07' W 080°06'0 0.0
2017-Dec-21 04:39N 26°07' W 080°06'0 0.0
2017-Dec-21 04:27N 26°07' W 080°06'0 0.0
2017-Dec-21 03:15N 26°07' W 080°06'0 0.0
2017-Dec-21 02:57N 26°07' W 080°06'0 0.0
2017-Dec-21 02:27N 26°07' W 080°06'0 0.0
2017-Dec-21 01:57N 26°07' W 080°06'0 0.0
2017-Dec-21 01:15N 26°07' W 080°06'0 0.0
2017-Dec-21 00:45N 26°07' W 080°06'0 0.0
2017-Dec-21 00:15N 26°07' W 080°06'0 0.0
2017-Dec-20 23:51N 26°07' W 080°06'0 0.0
2017-Dec-20 23:21N 26°07' W 080°06'0 0.0
2017-Dec-20 22:51N 26°07' W 080°06'0 0.0
2017-Dec-20 21:09N 26°07' W 080°06'0 0.0
2017-Dec-20 20:39N 26°07' W 080°06'0 0.0
2017-Dec-20 19:39N 26°07' W 080°06'0 0.0
2017-Dec-20 19:21N 26°07' W 080°06'0 0.0
2017-Dec-20 18:57N 26°07' W 080°06'0 0.0
2017-Dec-20 18:09N 26°07' W 080°06'0 0.0
2017-Dec-20 17:57N 26°07' W 080°06'0 0.0
2017-Dec-20 17:27N 26°07' W 080°06'0 0.0
2017-Dec-20 16:57N 26°07' W 080°06'0 0.0
2017-Dec-20 16:27N 26°07' W 080°06'0 0.0
2017-Dec-20 15:27N 26°07' W 080°06'0 0.0
2017-Dec-20 14:57N 26°07' W 080°06'0 0.0
2017-Dec-20 13:45N 26°07' W 080°06'0 0.0
2017-Dec-20 13:27N 26°07' W 080°06'0 0.0
2017-Dec-20 12:45N 26°07' W 080°06'0 0.0
2017-Dec-20 11:45N 26°07' W 080°06'0 0.0
2017-Dec-20 11:03N 26°07' W 080°06'0 0.0
2017-Dec-20 10:45N 26°07' W 080°06'0 0.0
2017-Dec-20 10:15N 26°07' W 080°06'0 0.0
2017-Dec-20 09:51N 26°07' W 080°06'0 0.0
2017-Dec-20 09:15N 26°07' W 080°06'0 0.0
2017-Dec-20 08:51N 26°07' W 080°06'0 0.0
2017-Dec-20 08:21N 26°07' W 080°06'0 0.0
2017-Dec-20 07:51N 26°07' W 080°06'0 0.0
2017-Dec-20 07:21N 26°07' W 080°06'0 0.0
2017-Dec-20 06:39N 26°07' W 080°06'0 0.0
2017-Dec-20 06:21N 26°07' W 080°06'0 0.0
2017-Dec-20 05:39N 26°07' W 080°06'0 0.0
2017-Dec-20 05:21N 26°07' W 080°06'0 0.0
2017-Dec-20 04:51N 26°07' W 080°06'0 0.0
2017-Dec-20 04:27N 26°07' W 080°06'0 0.0
2017-Dec-20 03:39N 26°07' W 080°06'0 0.0
2017-Dec-20 03:27N 26°07' W 080°06'0 0.0
2017-Dec-20 02:39N 26°07' W 080°06'0 0.0
2017-Dec-20 02:27N 26°07' W 080°06'0 0.0
2017-Dec-20 01:57N 26°07' W 080°06'0 0.0
2017-Dec-20 01:27N 26°07' W 080°06'0 0.0
2017-Dec-20 00:45N 26°07' W 080°06'0 0.0
2017-Dec-20 00:27N 26°07' W 080°06'0 0.0
2017-Dec-19 22:45N 26°07' W 080°06'0 0.0
2017-Dec-19 21:15N 26°07' W 080°06'0 0.0
2017-Dec-19 19:33N 26°07' W 080°06'0 0.0
2017-Dec-19 18:33N 26°07' W 080°06'0 0.0
2017-Dec-19 18:09N 26°07' W 080°06'0 0.0
2017-Dec-19 17:39N 26°07' W 080°06'0 0.0
2017-Dec-19 17:21N 26°07' W 080°06'0 0.0
2017-Dec-19 16:51N 26°07' W 080°06'0 0.0
2017-Dec-19 16:21N 26°07' W 080°06'0 0.0
2017-Dec-19 15:51N 26°07' W 080°06'0 0.0
2017-Dec-19 15:21N 26°07' W 080°06'0 0.0
2017-Dec-19 14:57N 26°07' W 080°06'0 0.0
2017-Dec-19 14:27N 26°07' W 080°06'0 0.0
2017-Dec-19 13:39N 26°07' W 080°06'0 0.0
2017-Dec-19 13:09N 26°07' W 080°06'0 0.0
2017-Dec-19 12:57N 26°07' W 080°06'0 0.0
2017-Dec-19 12:15N 26°07' W 080°06'0 0.0
2017-Dec-19 11:57N 26°07' W 080°06'0 0.0
2017-Dec-19 11:27N 26°07' W 080°06'0 0.0
2017-Dec-19 10:57N 26°07' W 080°06'0 0.0
2017-Dec-19 10:27N 26°07' W 080°06'0 0.0
2017-Dec-19 09:57N 26°07' W 080°06'0 0.0
2017-Dec-19 09:27N 26°07' W 080°06'0 0.0
2017-Dec-19 08:57N 26°07' W 080°06'0 0.0
2017-Dec-19 08:15N 26°07' W 080°06'0 0.0
2017-Dec-19 07:03N 26°07' W 080°06'0 0.0
2017-Dec-19 06:45N 26°07' W 080°06'0 0.0
2017-Dec-19 06:15N 26°07' W 080°06'0 0.0
2017-Dec-19 05:51N 26°07' W 080°06'0 0.0
2017-Dec-19 05:21N 26°07' W 080°06'0 0.0
2017-Dec-19 04:51N 26°07' W 080°06'0 0.0
2017-Dec-19 03:39N 26°07' W 080°06'0 0.0
2017-Dec-19 02:51N 26°07' W 080°06'0 0.0
2017-Dec-19 01:39N 26°07' W 080°06'0 0.0
2017-Dec-19 01:21N 26°07' W 080°06'0 0.0
2017-Dec-19 00:51N 26°07' W 080°06'0 0.0
2017-Dec-19 00:21N 26°07' W 080°06'0 0.0
2017-Dec-18 23:51N 26°07' W 080°06'0 0.0
2017-Dec-18 22:27N 26°07' W 080°06'0 0.0
2017-Dec-18 21:45N 26°07' W 080°06'0 0.0
2017-Dec-18 21:15N 26°07' W 080°06'0 0.0
2017-Dec-18 20:57N 26°07' W 080°06'0 0.0
2017-Dec-18 20:27N 26°07' W 080°06'0 0.0
2017-Dec-18 19:57N 26°07' W 080°06'0 0.0
2017-Dec-18 19:27N 26°07' W 080°06'0 0.0
2017-Dec-18 18:57N 26°07' W 080°06'0 0.0
2017-Dec-18 18:27N 26°07' W 080°06'0 0.0
2017-Dec-18 16:45N 26°07' W 080°06'0 0.0
2017-Dec-18 16:15N 26°07' W 080°06'0 0.0
2017-Dec-18 14:33N 26°07' W 080°06'0 0.0
2017-Dec-18 14:21N 26°07' W 080°06'0 0.0
2017-Dec-18 13:51N 26°07' W 080°06'0 0.0
2017-Dec-18 13:21N 26°07' W 080°06'0 0.0
2017-Dec-18 12:51N 26°07' W 080°06'0 0.0
2017-Dec-18 12:21N 26°07' W 080°06'0 0.0
2017-Dec-18 11:09N 26°07' W 080°06'0 0.0
2017-Dec-18 10:57N 26°07' W 080°06'0 0.0
2017-Dec-18 10:27N 26°07' W 080°06'0 0.0
2017-Dec-18 09:57N 26°07' W 080°06'0 0.0
2017-Dec-18 09:09N 26°07' W 080°06'0 0.0
2017-Dec-18 08:57N 26°07' W 080°06'0 0.0
2017-Dec-18 08:15N 26°07' W 080°06'0 0.0
2017-Dec-18 06:45N 26°07' W 080°06'0 0.0
2017-Dec-18 06:27N 26°07' W 080°06'0 0.0
2017-Dec-18 05:57N 26°07' W 080°06'0 0.0
2017-Dec-18 05:27N 26°07' W 080°06'0 0.0
2017-Dec-18 04:45N 26°07' W 080°06'0 0.0
2017-Dec-18 04:15N 26°07' W 080°06'0 0.0
2017-Dec-18 03:45N 26°07' W 080°06'0 0.0
2017-Dec-18 03:15N 26°07' W 080°06'0 0.0
2017-Dec-18 02:51N 26°07' W 080°06'0 0.0
2017-Dec-18 02:21N 26°07' W 080°06'0 0.0
2017-Dec-18 01:51N 26°07' W 080°06'0 0.0
2017-Dec-18 00:33N 26°07' W 080°06'0 0.0
2017-Dec-18 00:09N 26°07' W 080°06'0 0.0
2017-Dec-17 22:21N 26°07' W 080°06'0 0.0
2017-Dec-17 21:51N 26°07' W 080°06'0 0.0
2017-Dec-17 20:39N 26°07' W 080°06'0 0.0
2017-Dec-17 20:09N 26°07' W 080°06'0 0.0
2017-Dec-17 18:45N 26°07' W 080°06'0 0.0
2017-Dec-17 17:15N 26°07' W 080°06'0 0.0
2017-Dec-17 16:45N 26°07' W 080°06'0 0.0
2017-Dec-17 16:15N 26°07' W 080°06'0 0.0
2017-Dec-17 15:57N 26°07' W 080°06'2 4.1
2017-Dec-17 15:27N 26°09' W 080°06'2 4.1
2017-Dec-17 14:57N 26°07' W 080°06'0 0.0
2017-Dec-17 13:45N 26°07' W 080°06'0 0.0
2017-Dec-17 13:03N 26°07' W 080°06'0 0.0
2017-Dec-17 12:51N 26°07' W 080°06'0 0.0
2017-Dec-17 12:21N 26°07' W 080°06'0 0.0
2017-Dec-17 11:33N 26°07' W 080°06'0 0.0
2017-Dec-17 10:21N 26°07' W 080°06'0 0.0
2017-Dec-17 09:33N 26°07' W 080°06'0 0.0
2017-Dec-17 09:03N 26°07' W 080°06'0 0.0
2017-Dec-17 08:51N 26°07' W 080°06'0 0.0
2017-Dec-17 07:21N 26°07' W 080°06'0 0.0
2017-Dec-17 06:51N 26°07' W 080°06'0 0.0
2017-Dec-17 06:21N 26°07' W 080°06'0 0.0
2017-Dec-17 05:39N 26°07' W 080°06'0 0.0
2017-Dec-17 04:27N 26°07' W 080°06'0 0.0
2017-Dec-17 03:57N 26°07' W 080°06'0 0.0
2017-Dec-17 03:27N 26°07' W 080°06'0 0.0
2017-Dec-17 02:57N 26°07' W 080°06'0 0.0
2017-Dec-17 02:27N 26°07' W 080°06'0 0.0
2017-Dec-17 00:33N 26°07' W 080°06'0 0.0
2017-Dec-17 00:15N 26°07' W 080°06'0 0.0
2017-Dec-16 22:45N 26°07' W 080°06'0 0.0
2017-Dec-16 22:21N 26°07' W 080°06'0 0.0
2017-Dec-16 21:51N 26°07' W 080°06'0 0.0
2017-Dec-16 21:21N 26°07' W 080°06'0 0.0
2017-Dec-16 20:51N 26°07' W 080°06'0 0.0
2017-Dec-16 20:21N 26°07' W 080°06'0 0.0
2017-Dec-16 19:21N 26°07' W 080°06'0 0.0
2017-Dec-16 18:51N 26°07' W 080°06'0 0.0
2017-Dec-16 18:21N 26°07' W 080°06'0 0.0
2017-Dec-16 17:07N 26°07' W 080°06'1 3.1
2017-Dec-16 16:49N 26°06' W 080°07'1 1.5
2017-Dec-16 16:29N 26°06' W 080°07'4 8.8
2017-Dec-16 15:59N 26°09' W 080°03'3210.9
2017-Dec-16 13:00N 26°41' W 080°02'510.6
2017-Dec-16 12:30N 26°46' W 080°01'2 3.6
2017-Dec-16 12:00N 26°48' W 080°03'2 0.1
2017-Dec-15 19:39N 26°50' W 080°03'  
Track history (hours):
 
Tides and Currents Weather Stations Pressure Air Temp Water Temp Dewpoint Dewpoint Depression Visibility Wind Speed Wind Dir Waves Ship Positions

Chanson

Last reported at 2017-Dec-24 20:14 UTC. Time now 2018-Jan-22 08:30 UTC.
Position N 26°02' W 079°54'.
Warning: this ship's position is 28 days out of date.

Length 30 m.

MMSI: 319062100.

Date/timePositionNaut miles runAvg speedWind from/ knotsBaromVisibWave heightAir tempDewpointWater temp
2017-Dec-24 20:14N 26°02' W 079°54'1 6.0
2017-Dec-24 20:00N 26°03' W 079°55'3 6.0
2017-Dec-24 19:30N 26°04' W 079°59'3 4.9
2017-Dec-24 18:53N 26°04' W 080°02'2 4.4
2017-Dec-24 18:30N 26°05' W 080°04'3 6.4
2017-Dec-24 18:00N 26°06' W 080°07'1 1.7
2017-Dec-24 17:18N 26°07' W 080°06'0 0.0
2017-Dec-24 17:00N 26°07' W 080°06'0 0.0
2017-Dec-24 16:18N 26°07' W 080°06'0 0.0
2017-Dec-24 16:00N 26°07' W 080°06'0 0.0
2017-Dec-24 15:18N 26°07' W 080°06'0 0.0
2017-Dec-24 14:36N 26°07' W 080°06'0 0.0
2017-Dec-24 14:18N 26°07' W 080°06'0 0.0
2017-Dec-24 13:54N 26°07' W 080°06'0 0.0
2017-Dec-24 13:18N 26°07' W 080°06'0 0.0
2017-Dec-24 12:51N 26°07' W 080°06'0 0.0
2017-Dec-24 12:24N 26°07' W 080°06'0 0.0
2017-Dec-24 11:57N 26°07' W 080°06'0 0.0
2017-Dec-24 11:24N 26°07' W 080°06'0 0.0
2017-Dec-24 10:57N 26°07' W 080°06'0 0.0
2017-Dec-24 10:24N 26°07' W 080°06'0 0.0
2017-Dec-24 09:54N 26°07' W 080°06'0 0.0
2017-Dec-24 09:24N 26°07' W 080°06'0 0.0
2017-Dec-24 08:30N 26°07' W 080°06'0 0.0
2017-Dec-24 08:00N 26°07' W 080°06'0 0.0
2017-Dec-24 07:00N 26°07' W 080°06'0 0.0
2017-Dec-24 06:30N 26°07' W 080°06'0 0.0
2017-Dec-24 05:12N 26°07' W 080°06'0 0.0
2017-Dec-24 04:18N 26°07' W 080°06'0 0.0
2017-Dec-24 04:00N 26°07' W 080°06'0 0.0
2017-Dec-24 03:18N 26°07' W 080°06'0 0.0
2017-Dec-24 03:00N 26°07' W 080°06'0 0.0
2017-Dec-24 02:30N 26°07' W 080°06'0 0.0
2017-Dec-24 01:48N 26°07' W 080°06'0 0.0
2017-Dec-24 01:18N 26°07' W 080°06'0 0.0
2017-Dec-24 00:48N 26°07' W 080°06'0 0.0
2017-Dec-24 00:18N 26°07' W 080°06'0 0.0
2017-Dec-23 23:54N 26°07' W 080°06'0 0.0
2017-Dec-23 22:36N 26°07' W 080°06'0 0.0
2017-Dec-23 22:24N 26°07' W 080°06'0 0.0
2017-Dec-23 21:54N 26°07' W 080°06'0 0.0
2017-Dec-23 21:24N 26°07' W 080°06'0 0.0
2017-Dec-23 20:42N 26°07' W 080°06'0 0.0
2017-Dec-23 20:24N 26°07' W 080°06'0 0.0
2017-Dec-23 19:54N 26°07' W 080°06'0 0.0
2017-Dec-23 19:24N 26°07' W 080°06'0 0.0
2017-Dec-23 18:54N 26°07' W 080°06'0 0.0
2017-Dec-23 18:30N 26°07' W 080°06'0 0.0
2017-Dec-23 18:00N 26°07' W 080°06'0 0.0
2017-Dec-23 17:12N 26°07' W 080°06'0 0.0
2017-Dec-23 17:00N 26°07' W 080°06'0 0.0
2017-Dec-23 16:30N 26°07' W 080°06'0 0.0
2017-Dec-23 16:00N 26°07' W 080°06'0 0.0
2017-Dec-23 15:30N 26°07' W 080°06'0 0.1
2017-Dec-23 14:46N 26°07' W 080°06'0 0.5
2017-Dec-23 14:03N 26°07' W 080°07'0 0.0
2017-Dec-23 13:36N 26°07' W 080°07'0 0.0
2017-Dec-23 13:30N 26°07' W 080°07'0 0.5
2017-Dec-23 12:58N 26°07' W 080°07'0 0.1
2017-Dec-23 12:28N 26°07' W 080°06'0 0.0
2017-Dec-23 10:40N 26°07' W 080°06'0 0.0
2017-Dec-23 10:28N 26°07' W 080°06'0 0.0
2017-Dec-23 09:58N 26°07' W 080°06'0 0.0
2017-Dec-23 09:16N 26°07' W 080°06'0 0.0
2017-Dec-23 08:58N 26°07' W 080°06'611.6
2017-Dec-23 08:28N 26°13' W 080°06'6 8.3
2017-Dec-23 07:46N 26°07' W 080°06'0 0.0
2017-Dec-23 07:28N 26°07' W 080°06'0 0.0
2017-Dec-23 06:46N 26°07' W 080°06'0 0.0
2017-Dec-23 06:28N 26°07' W 080°06'0 0.0
2017-Dec-23 05:46N 26°07' W 080°06'0 0.0
2017-Dec-23 05:16N 26°07' W 080°06'0 0.0
2017-Dec-23 04:34N 26°07' W 080°06'0 0.0
2017-Dec-23 04:22N 26°07' W 080°06'0 0.0
2017-Dec-23 03:52N 26°07' W 080°06'0 0.0
2017-Dec-23 02:52N 26°07' W 080°06'0 0.0
2017-Dec-23 02:22N 26°07' W 080°06'0 0.0
2017-Dec-23 01:52N 26°07' W 080°06'0 0.0
2017-Dec-23 01:22N 26°07' W 080°06'0 0.0
2017-Dec-23 00:52N 26°07' W 080°06'0 0.0
2017-Dec-23 00:22N 26°07' W 080°06'0 0.0
2017-Dec-22 23:52N 26°07' W 080°06'0 0.0
2017-Dec-22 23:22N 26°07' W 080°06'0 0.0
2017-Dec-22 22:28N 26°07' W 080°06'0 0.0
2017-Dec-22 16:58N 26°07' W 080°06'0 0.0
2017-Dec-22 16:28N 26°07' W 080°06'0 0.0
2017-Dec-22 15:46N 26°07' W 080°06'0 0.0
2017-Dec-22 15:16N 26°07' W 080°06'0 0.0
2017-Dec-22 14:39N 26°07' W 080°06'0 0.0
2017-Dec-22 14:21N 26°07' W 080°06'0 0.0
2017-Dec-22 13:51N 26°07' W 080°06'0 0.0
2017-Dec-22 13:21N 26°07' W 080°06'0 0.0
2017-Dec-22 12:51N 26°07' W 080°06'0 0.0
2017-Dec-22 12:27N 26°07' W 080°06'0 0.0
2017-Dec-22 11:57N 26°07' W 080°06'0 0.0
2017-Dec-22 11:09N 26°07' W 080°06'0 0.0
2017-Dec-22 10:39N 26°07' W 080°06'0 0.0
2017-Dec-22 10:09N 26°07' W 080°06'0 0.0
2017-Dec-22 09:39N 26°07' W 080°06'0 0.0
2017-Dec-22 09:09N 26°07' W 080°06'0 0.0
2017-Dec-22 08:57N 26°07' W 080°06'0 0.0
2017-Dec-22 08:27N 26°07' W 080°06'0 0.0
2017-Dec-22 07:57N 26°07' W 080°06'0 0.0
2017-Dec-22 07:27N 26°07' W 080°06'0 0.0
2017-Dec-22 06:27N 26°07' W 080°06'0 0.0
2017-Dec-22 05:57N 26°07' W 080°06'0 0.0
2017-Dec-22 05:03N 26°07' W 080°06'0 0.0
2017-Dec-22 04:45N 26°07' W 080°06'0 0.0
2017-Dec-22 04:30N 26°07' W 080°06'0 0.0
2017-Dec-22 03:51N 26°07' W 080°06'0 0.0
2017-Dec-22 03:21N 26°07' W 080°06'0 0.0
2017-Dec-22 02:51N 26°07' W 080°06'0 0.0
2017-Dec-22 01:21N 26°07' W 080°06'0 0.0
2017-Dec-22 00:51N 26°07' W 080°06'0 0.0
2017-Dec-21 23:21N 26°07' W 080°06'0 0.0
2017-Dec-21 22:51N 26°07' W 080°06'0 0.0
2017-Dec-21 22:21N 26°07' W 080°06'0 0.0
2017-Dec-21 21:27N 26°07' W 080°06'0 0.0
2017-Dec-21 20:57N 26°07' W 080°06'0 0.0
2017-Dec-21 20:27N 26°07' W 080°06'0 0.0
2017-Dec-21 19:57N 26°07' W 080°06'0 0.0
2017-Dec-21 19:27N 26°07' W 080°06'0 0.0
2017-Dec-21 19:00N 26°07' W 080°06'0 0.0
2017-Dec-21 18:27N 26°07' W 080°06'0 0.0
2017-Dec-21 17:57N 26°07' W 080°06'0 0.0
2017-Dec-21 17:27N 26°07' W 080°06'0 0.0
2017-Dec-21 16:33N 26°07' W 080°06'0 0.0
2017-Dec-21 16:15N 26°07' W 080°06'0 0.0
2017-Dec-21 15:45N 26°07' W 080°06'0 0.0
2017-Dec-21 15:15N 26°07' W 080°06'0 0.0
2017-Dec-21 14:45N 26°07' W 080°06'0 0.0
2017-Dec-21 14:15N 26°07' W 080°06'0 0.0
2017-Dec-21 13:45N 26°07' W 080°06'0 0.0
2017-Dec-21 12:51N 26°07' W 080°06'0 0.0
2017-Dec-21 12:21N 26°07' W 080°06'0 0.0
2017-Dec-21 11:33N 26°07' W 080°06'0 0.0
2017-Dec-21 11:21N 26°07' W 080°06'0 0.0
2017-Dec-21 10:51N 26°07' W 080°06'0 0.0
2017-Dec-21 10:21N 26°07' W 080°06'0 0.0
2017-Dec-21 09:21N 26°07' W 080°06'0 0.0
2017-Dec-21 08:27N 26°07' W 080°06'0 0.0
2017-Dec-21 07:51N 26°07' W 080°06'0 0.0
2017-Dec-21 07:27N 26°07' W 080°06'0 0.0
2017-Dec-21 06:27N 26°07' W 080°06'0 0.0
2017-Dec-21 05:57N 26°07' W 080°06'0 0.0
2017-Dec-21 05:27N 26°07' W 080°06'0 0.0
2017-Dec-21 04:39N 26°07' W 080°06'0 0.0
2017-Dec-21 04:27N 26°07' W 080°06'0 0.0
2017-Dec-21 03:15N 26°07' W 080°06'0 0.0
2017-Dec-21 02:57N 26°07' W 080°06'0 0.0
2017-Dec-21 02:27N 26°07' W 080°06'0 0.0
2017-Dec-21 01:57N 26°07' W 080°06'0 0.0
2017-Dec-21 01:15N 26°07' W 080°06'0 0.0
2017-Dec-21 00:45N 26°07' W 080°06'0 0.0
2017-Dec-21 00:15N 26°07' W 080°06'0 0.0
2017-Dec-20 23:51N 26°07' W 080°06'0 0.0
2017-Dec-20 23:21N 26°07' W 080°06'0 0.0
2017-Dec-20 22:51N 26°07' W 080°06'0 0.0
2017-Dec-20 21:09N 26°07' W 080°06'0 0.0
2017-Dec-20 20:39N 26°07' W 080°06'0 0.0
2017-Dec-20 19:39N 26°07' W 080°06'0 0.0
2017-Dec-20 19:21N 26°07' W 080°06'0 0.0
2017-Dec-20 18:57N 26°07' W 080°06'0 0.0
2017-Dec-20 18:09N 26°07' W 080°06'0 0.0
2017-Dec-20 17:57N 26°07' W 080°06'0 0.0
2017-Dec-20 17:27N 26°07' W 080°06'0 0.0
2017-Dec-20 16:57N 26°07' W 080°06'0 0.0
2017-Dec-20 16:27N 26°07' W 080°06'0 0.0
2017-Dec-20 15:27N 26°07' W 080°06'0 0.0
2017-Dec-20 14:57N 26°07' W 080°06'0 0.0
2017-Dec-20 13:45N 26°07' W 080°06'0 0.0
2017-Dec-20 13:27N 26°07' W 080°06'0 0.0
2017-Dec-20 12:45N 26°07' W 080°06'0 0.0
2017-Dec-20 11:45N 26°07' W 080°06'0 0.0
2017-Dec-20 11:03N 26°07' W 080°06'0 0.0
2017-Dec-20 10:45N 26°07' W 080°06'0 0.0
2017-Dec-20 10:15N 26°07' W 080°06'0 0.0
2017-Dec-20 09:51N 26°07' W 080°06'0 0.0
2017-Dec-20 09:15N 26°07' W 080°06'0 0.0
2017-Dec-20 08:51N 26°07' W 080°06'0 0.0
2017-Dec-20 08:21N 26°07' W 080°06'0 0.0
2017-Dec-20 07:51N 26°07' W 080°06'0 0.0
2017-Dec-20 07:21N 26°07' W 080°06'0 0.0
2017-Dec-20 06:39N 26°07' W 080°06'0 0.0
2017-Dec-20 06:21N 26°07' W 080°06'0 0.0
2017-Dec-20 05:39N 26°07' W 080°06'0 0.0
2017-Dec-20 05:21N 26°07' W 080°06'0 0.0
2017-Dec-20 04:51N 26°07' W 080°06'0 0.0
2017-Dec-20 04:27N 26°07' W 080°06'0 0.0
2017-Dec-20 03:39N 26°07' W 080°06'0 0.0
2017-Dec-20 03:27N 26°07' W 080°06'0 0.0
2017-Dec-20 02:39N 26°07' W 080°06'0 0.0
2017-Dec-20 02:27N 26°07' W 080°06'0 0.0
2017-Dec-20 01:57N 26°07' W 080°06'0 0.0
2017-Dec-20 01:27N 26°07' W 080°06'0 0.0
2017-Dec-20 00:45N 26°07' W 080°06'0 0.0
2017-Dec-20 00:27N 26°07' W 080°06'0 0.0
2017-Dec-19 22:45N 26°07' W 080°06'0 0.0
2017-Dec-19 21:15N 26°07' W 080°06'0 0.0
2017-Dec-19 19:33N 26°07' W 080°06'0 0.0
2017-Dec-19 18:33N 26°07' W 080°06'0 0.0
2017-Dec-19 18:09N 26°07' W 080°06'0 0.0
2017-Dec-19 17:39N 26°07' W 080°06'0 0.0
2017-Dec-19 17:21N 26°07' W 080°06'0 0.0
2017-Dec-19 16:51N 26°07' W 080°06'0 0.0
2017-Dec-19 16:21N 26°07' W 080°06'0 0.0
2017-Dec-19 15:51N 26°07' W 080°06'0 0.0
2017-Dec-19 15:21N 26°07' W 080°06'0 0.0
2017-Dec-19 14:57N 26°07' W 080°06'0 0.0
2017-Dec-19 14:27N 26°07' W 080°06'0 0.0
2017-Dec-19 13:39N 26°07' W 080°06'0 0.0
2017-Dec-19 13:09N 26°07' W 080°06'0 0.0
2017-Dec-19 12:57N 26°07' W 080°06'0 0.0
2017-Dec-19 12:15N 26°07' W 080°06'0 0.0
2017-Dec-19 11:57N 26°07' W 080°06'0 0.0
2017-Dec-19 11:27N 26°07' W 080°06'0 0.0
2017-Dec-19 10:57N 26°07' W 080°06'0 0.0
2017-Dec-19 10:27N 26°07' W 080°06'0 0.0
2017-Dec-19 09:57N 26°07' W 080°06'0 0.0
2017-Dec-19 09:27N 26°07' W 080°06'0 0.0
2017-Dec-19 08:57N 26°07' W 080°06'0 0.0
2017-Dec-19 08:15N 26°07' W 080°06'0 0.0
2017-Dec-19 07:03N 26°07' W 080°06'0 0.0
2017-Dec-19 06:45N 26°07' W 080°06'0 0.0
2017-Dec-19 06:15N 26°07' W 080°06'0 0.0
2017-Dec-19 05:51N 26°07' W 080°06'0 0.0
2017-Dec-19 05:21N 26°07' W 080°06'0 0.0
2017-Dec-19 04:51N 26°07' W 080°06'0 0.0
2017-Dec-19 03:39N 26°07' W 080°06'0 0.0
2017-Dec-19 02:51N 26°07' W 080°06'0 0.0
2017-Dec-19 01:39N 26°07' W 080°06'0 0.0
2017-Dec-19 01:21N 26°07' W 080°06'0 0.0
2017-Dec-19 00:51N 26°07' W 080°06'0 0.0
2017-Dec-19 00:21N 26°07' W 080°06'0 0.0
2017-Dec-18 23:51N 26°07' W 080°06'0 0.0
2017-Dec-18 22:27N 26°07' W 080°06'0 0.0
2017-Dec-18 21:45N 26°07' W 080°06'0 0.0
2017-Dec-18 21:15N 26°07' W 080°06'0 0.0
2017-Dec-18 20:57N 26°07' W 080°06'0 0.0
2017-Dec-18 20:27N 26°07' W 080°06'0 0.0
2017-Dec-18 19:57N 26°07' W 080°06'0 0.0
2017-Dec-18 19:27N 26°07' W 080°06'0 0.0
2017-Dec-18 18:57N 26°07' W 080°06'0 0.0
2017-Dec-18 18:27N 26°07' W 080°06'0 0.0
2017-Dec-18 16:45N 26°07' W 080°06'0 0.0
2017-Dec-18 16:15N 26°07' W 080°06'0 0.0
2017-Dec-18 14:33N 26°07' W 080°06'0 0.0
2017-Dec-18 14:21N 26°07' W 080°06'0 0.0
2017-Dec-18 13:51N 26°07' W 080°06'0 0.0
2017-Dec-18 13:21N 26°07' W 080°06'0 0.0
2017-Dec-18 12:51N 26°07' W 080°06'0 0.0
2017-Dec-18 12:21N 26°07' W 080°06'0 0.0
2017-Dec-18 11:09N 26°07' W 080°06'0 0.0
2017-Dec-18 10:57N 26°07' W 080°06'0 0.0
2017-Dec-18 10:27N 26°07' W 080°06'0 0.0
2017-Dec-18 09:57N 26°07' W 080°06'0 0.0
2017-Dec-18 09:09N 26°07' W 080°06'0 0.0
2017-Dec-18 08:57N 26°07' W 080°06'0 0.0
2017-Dec-18 08:15N 26°07' W 080°06'0 0.0
2017-Dec-18 06:45N 26°07' W 080°06'0 0.0
2017-Dec-18 06:27N 26°07' W 080°06'0 0.0
2017-Dec-18 05:57N 26°07' W 080°06'0 0.0
2017-Dec-18 05:27N 26°07' W 080°06'0 0.0
2017-Dec-18 04:45N 26°07' W 080°06'0 0.0
2017-Dec-18 04:15N 26°07' W 080°06'0 0.0
2017-Dec-18 03:45N 26°07' W 080°06'0 0.0
2017-Dec-18 03:15N 26°07' W 080°06'0 0.0
2017-Dec-18 02:51N 26°07' W 080°06'0 0.0
2017-Dec-18 02:21N 26°07' W 080°06'0 0.0
2017-Dec-18 01:51N 26°07' W 080°06'0 0.0
2017-Dec-18 00:33N 26°07' W 080°06'0 0.0
2017-Dec-18 00:09N 26°07' W 080°06'0 0.0
2017-Dec-17 22:21N 26°07' W 080°06'0 0.0
2017-Dec-17 21:51N 26°07' W 080°06'0 0.0
2017-Dec-17 20:39N 26°07' W 080°06'0 0.0
2017-Dec-17 20:09N 26°07' W 080°06'0 0.0
2017-Dec-17 18:45N 26°07' W 080°06'0 0.0
2017-Dec-17 17:15N 26°07' W 080°06'0 0.0
2017-Dec-17 16:45N 26°07' W 080°06'0 0.0
2017-Dec-17 16:15N 26°07' W 080°06'0 0.0
2017-Dec-17 15:57N 26°07' W 080°06'2 4.1
2017-Dec-17 15:27N 26°09' W 080°06'2 4.1
2017-Dec-17 14:57N 26°07' W 080°06'0 0.0
2017-Dec-17 13:45N 26°07' W 080°06'0 0.0
2017-Dec-17 13:03N 26°07' W 080°06'0 0.0
2017-Dec-17 12:51N 26°07' W 080°06'0 0.0
2017-Dec-17 12:21N 26°07' W 080°06'0 0.0
2017-Dec-17 11:33N 26°07' W 080°06'0 0.0
2017-Dec-17 10:21N 26°07' W 080°06'0 0.0
2017-Dec-17 09:33N 26°07' W 080°06'0 0.0
2017-Dec-17 09:03N 26°07' W 080°06'0 0.0
2017-Dec-17 08:51N 26°07' W 080°06'0 0.0
2017-Dec-17 07:21N 26°07' W 080°06'0 0.0
2017-Dec-17 06:51N 26°07' W 080°06'0 0.0
2017-Dec-17 06:21N 26°07' W 080°06'0 0.0
2017-Dec-17 05:39N 26°07' W 080°06'0 0.0
2017-Dec-17 04:27N 26°07' W 080°06'0 0.0
2017-Dec-17 03:57N 26°07' W 080°06'0 0.0
2017-Dec-17 03:27N 26°07' W 080°06'0 0.0
2017-Dec-17 02:57N 26°07' W 080°06'0 0.0
2017-Dec-17 02:27N 26°07' W 080°06'0 0.0
2017-Dec-17 00:33N 26°07' W 080°06'0 0.0
2017-Dec-17 00:15N 26°07' W 080°06'0 0.0
2017-Dec-16 22:45N 26°07' W 080°06'0 0.0
2017-Dec-16 22:21N 26°07' W 080°06'0 0.0
2017-Dec-16 21:51N 26°07' W 080°06'0 0.0
2017-Dec-16 21:21N 26°07' W 080°06'0 0.0
2017-Dec-16 20:51N 26°07' W 080°06'0 0.0
2017-Dec-16 20:21N 26°07' W 080°06'0 0.0
2017-Dec-16 19:21N 26°07' W 080°06'0 0.0
2017-Dec-16 18:51N 26°07' W 080°06'0 0.0
2017-Dec-16 18:21N 26°07' W 080°06'0 0.0
2017-Dec-16 17:07N 26°07' W 080°06'1 3.1
2017-Dec-16 16:49N 26°06' W 080°07'1 1.5
2017-Dec-16 16:29N 26°06' W 080°07'4 8.8
2017-Dec-16 15:59N 26°09' W 080°03'3210.9
2017-Dec-16 13:00N 26°41' W 080°02'510.6
2017-Dec-16 12:30N 26°46' W 080°01'2 3.6
2017-Dec-16 12:00N 26°48' W 080°03'2 0.1
2017-Dec-15 19:39N 26°50' W 080°03'  

Dump ship's entire track history